sensor_id;sensor_type;location;lat;lon;timestamp;temperature;humidity
34877;DHT22;21086;44.780;17.194;2022-12-20T00:01:28;4.20;99.90
34877;DHT22;21086;44.780;17.194;2022-12-20T00:03:57;4.50;99.90
34877;DHT22;21086;44.780;17.194;2022-12-20T00:06:25;4.10;99.90
34877;DHT22;21086;44.780;17.194;2022-12-20T00:08:54;4.10;99.90
34877;DHT22;21086;44.780;17.194;2022-12-20T00:11:21;4.10;99.90
34877;DHT22;21086;44.780;17.194;2022-12-20T00:13:48;5.70;99.90
34877;DHT22;21086;44.780;17.194;2022-12-20T00:16:20;4.20;99.90
34877;DHT22;21086;44.780;17.194;2022-12-20T00:18:51;4.60;99.90
34877;DHT22;21086;44.780;17.194;2022-12-20T00:21:19;4.10;99.90
34877;DHT22;21086;44.780;17.194;2022-12-20T00:23:46;4.30;99.90
34877;DHT22;21086;44.780;17.194;2022-12-20T00:26:15;5.10;99.90
34877;DHT22;21086;44.780;17.194;2022-12-20T00:28:43;4.30;99.90
34877;DHT22;21086;44.780;17.194;2022-12-20T00:31:14;5.40;99.90
34877;DHT22;21086;44.780;17.194;2022-12-20T00:33:45;4.40;99.90
34877;DHT22;21086;44.780;17.194;2022-12-20T00:36:12;4.20;99.90
34877;DHT22;21086;44.780;17.194;2022-12-20T00:38:39;5.60;99.90
34877;DHT22;21086;44.780;17.194;2022-12-20T00:41:09;5.30;99.90
34877;DHT22;21086;44.780;17.194;2022-12-20T00:43:37;5.90;99.90
34877;DHT22;21086;44.780;17.194;2022-12-20T00:46:05;4.90;99.90
34877;DHT22;21086;44.780;17.194;2022-12-20T00:48:33;4.70;99.90
34877;DHT22;21086;44.780;17.194;2022-12-20T00:51:02;5.50;99.90
34877;DHT22;21086;44.780;17.194;2022-12-20T00:53:31;4.30;99.90
34877;DHT22;21086;44.780;17.194;2022-12-20T00:55:58;3.90;99.90
34877;DHT22;21086;44.780;17.194;2022-12-20T00:58:26;4.40;99.90
34877;DHT22;21086;44.780;17.194;2022-12-20T01:00:54;3.90;99.90
34877;DHT22;21086;44.780;17.194;2022-12-20T01:03:24;4.30;99.90
34877;DHT22;21086;44.780;17.194;2022-12-20T01:05:57;4.00;99.90
34877;DHT22;21086;44.780;17.194;2022-12-20T01:08:29;5.90;99.90
34877;DHT22;21086;44.780;17.194;2022-12-20T01:11:26;4.00;99.90
34877;DHT22;21086;44.780;17.194;2022-12-20T01:13:56;5.20;99.90
34877;DHT22;21086;44.780;17.194;2022-12-20T01:16:29;5.90;99.90
34877;DHT22;21086;44.780;17.194;2022-12-20T01:18:56;4.80;99.90
34877;DHT22;21086;44.780;17.194;2022-12-20T01:21:25;4.10;99.90
34877;DHT22;21086;44.780;17.194;2022-12-20T01:23:53;4.90;99.90
34877;DHT22;21086;44.780;17.194;2022-12-20T01:26:23;4.60;99.90
34877;DHT22;21086;44.780;17.194;2022-12-20T01:28:55;4.90;99.90
34877;DHT22;21086;44.780;17.194;2022-12-20T01:31:23;4.00;99.90
34877;DHT22;21086;44.780;17.194;2022-12-20T01:33:51;4.20;99.90
34877;DHT22;21086;44.780;17.194;2022-12-20T01:36:42;3.90;99.90
34877;DHT22;21086;44.780;17.194;2022-12-20T01:39:12;4.10;99.90
34877;DHT22;21086;44.780;17.194;2022-12-20T01:41:40;4.60;99.90
34877;DHT22;21086;44.780;17.194;2022-12-20T01:46:45;4.10;99.90
34877;DHT22;21086;44.780;17.194;2022-12-20T01:49:17;4.00;99.90
34877;DHT22;21086;44.780;17.194;2022-12-20T01:51:52;4.00;99.90
34877;DHT22;21086;44.780;17.194;2022-12-20T01:54:26;4.00;99.90
34877;DHT22;21086;44.780;17.194;2022-12-20T01:57:01;4.00;99.90
34877;DHT22;21086;44.780;17.194;2022-12-20T01:59:30;5.10;99.90
34877;DHT22;21086;44.780;17.194;2022-12-20T02:02:02;3.90;99.90
34877;DHT22;21086;44.780;17.194;2022-12-20T02:04:31;4.00;99.90
34877;DHT22;21086;44.780;17.194;2022-12-20T02:06:59;4.40;99.90
34877;DHT22;21086;44.780;17.194;2022-12-20T02:09:27;5.10;99.90
34877;DHT22;21086;44.780;17.194;2022-12-20T02:31:18;4.00;99.90
34877;DHT22;21086;44.780;17.194;2022-12-20T02:33:47;4.20;99.90
34877;DHT22;21086;44.780;17.194;2022-12-20T02:36:18;4.20;99.90
34877;DHT22;21086;44.780;17.194;2022-12-20T02:38:45;5.00;99.90
34877;DHT22;21086;44.780;17.194;2022-12-20T02:41:55;4.00;99.90
34877;DHT22;21086;44.780;17.194;2022-12-20T02:44:25;4.90;99.90
34877;DHT22;21086;44.780;17.194;2022-12-20T02:47:19;4.40;99.90
34877;DHT22;21086;44.780;17.194;2022-12-20T02:49:48;4.00;99.90
34877;DHT22;21086;44.780;17.194;2022-12-20T02:52:17;4.20;99.90
34877;DHT22;21086;44.780;17.194;2022-12-20T02:54:46;4.10;99.90
34877;DHT22;21086;44.780;17.194;2022-12-20T02:57:21;4.60;99.90
34877;DHT22;21086;44.780;17.194;2022-12-20T03:00:09;4.10;99.90
34877;DHT22;21086;44.780;17.194;2022-12-20T03:02:38;4.10;99.90
34877;DHT22;21086;44.780;17.194;2022-12-20T03:05:25;4.80;99.90
34877;DHT22;21086;44.780;17.194;2022-12-20T03:07:54;4.10;99.90
34877;DHT22;21086;44.780;17.194;2022-12-20T03:10:22;4.00;99.90
34877;DHT22;21086;44.780;17.194;2022-12-20T03:12:49;4.70;99.90
34877;DHT22;21086;44.780;17.194;2022-12-20T03:15:15;4.10;99.90
34877;DHT22;21086;44.780;17.194;2022-12-20T03:17:42;4.20;99.90
34877;DHT22;21086;44.780;17.194;2022-12-20T03:20:09;4.60;99.90
34877;DHT22;21086;44.780;17.194;2022-12-20T03:22:37;3.90;99.90
34877;DHT22;21086;44.780;17.194;2022-12-20T03:25:05;5.10;99.90
34877;DHT22;21086;44.780;17.194;2022-12-20T03:27:32;3.90;99.90
34877;DHT22;21086;44.780;17.194;2022-12-20T03:29:59;4.80;99.90
34877;DHT22;21086;44.780;17.194;2022-12-20T03:32:26;4.20;99.90
34877;DHT22;21086;44.780;17.194;2022-12-20T03:34:53;4.00;99.90
34877;DHT22;21086;44.780;17.194;2022-12-20T03:37:20;4.20;99.90
34877;DHT22;21086;44.780;17.194;2022-12-20T03:39:46;4.10;99.90
34877;DHT22;21086;44.780;17.194;2022-12-20T03:42:13;4.10;99.90
34877;DHT22;21086;44.780;17.194;2022-12-20T03:44:41;4.00;99.90
34877;DHT22;21086;44.780;17.194;2022-12-20T03:47:08;4.30;99.90
34877;DHT22;21086;44.780;17.194;2022-12-20T03:49:34;4.90;99.90
34877;DHT22;21086;44.780;17.194;2022-12-20T03:52:01;4.20;99.90
34877;DHT22;21086;44.780;17.194;2022-12-20T03:54:28;4.10;99.90
34877;DHT22;21086;44.780;17.194;2022-12-20T03:56:55;4.10;99.90
34877;DHT22;21086;44.780;17.194;2022-12-20T03:59:22;4.80;99.90
34877;DHT22;21086;44.780;17.194;2022-12-20T04:01:49;4.10;99.90
34877;DHT22;21086;44.780;17.194;2022-12-20T04:04:16;5.20;99.90
34877;DHT22;21086;44.780;17.194;2022-12-20T04:06:43;4.10;99.90
34877;DHT22;21086;44.780;17.194;2022-12-20T04:09:10;4.90;99.90
34877;DHT22;21086;44.780;17.194;2022-12-20T04:11:37;4.10;99.90
34877;DHT22;21086;44.780;17.194;2022-12-20T04:14:05;4.00;99.90
34877;DHT22;21086;44.780;17.194;2022-12-20T04:16:32;4.10;99.90
34877;DHT22;21086;44.780;17.194;2022-12-20T04:19:00;4.10;99.90
34877;DHT22;21086;44.780;17.194;2022-12-20T04:21:29;5.20;99.90
34877;DHT22;21086;44.780;17.194;2022-12-20T04:23:57;4.00;99.90
34877;DHT22;21086;44.780;17.194;2022-12-20T04:26:24;4.50;99.90
34877;DHT22;21086;44.780;17.194;2022-12-20T04:28:51;4.70;99.90
34877;DHT22;21086;44.780;17.194;2022-12-20T04:31:18;4.30;99.90
34877;DHT22;21086;44.780;17.194;2022-12-20T04:33:50;4.00;99.90
34877;DHT22;21086;44.780;17.194;2022-12-20T04:36:17;4.70;99.90
34877;DHT22;21086;44.780;17.194;2022-12-20T04:38:44;4.20;99.90
34877;DHT22;21086;44.780;17.194;2022-12-20T04:41:10;5.40;99.90
34877;DHT22;21086;44.780;17.194;2022-12-20T04:43:53;4.10;99.90
34877;DHT22;21086;44.780;17.194;2022-12-20T04:46:21;3.90;99.90
34877;DHT22;21086;44.780;17.194;2022-12-20T04:48:49;4.00;99.90
34877;DHT22;21086;44.780;17.194;2022-12-20T04:51:26;4.10;99.90
34877;DHT22;21086;44.780;17.194;2022-12-20T04:53:53;4.10;99.90
34877;DHT22;21086;44.780;17.194;2022-12-20T04:56:26;4.90;99.90
34877;DHT22;21086;44.780;17.194;2022-12-20T04:58:56;4.00;99.90
34877;DHT22;21086;44.780;17.194;2022-12-20T05:01:24;3.90;99.90
34877;DHT22;21086;44.780;17.194;2022-12-20T05:03:51;3.90;99.90
34877;DHT22;21086;44.780;17.194;2022-12-20T05:06:18;3.90;99.90
34877;DHT22;21086;44.780;17.194;2022-12-20T05:08:46;3.70;99.90
34877;DHT22;21086;44.780;17.194;2022-12-20T05:11:13;3.80;99.90
34877;DHT22;21086;44.780;17.194;2022-12-20T05:13:40;3.80;99.90
34877;DHT22;21086;44.780;17.194;2022-12-20T05:16:08;3.70;99.90
34877;DHT22;21086;44.780;17.194;2022-12-20T05:18:35;3.70;99.90
34877;DHT22;21086;44.780;17.194;2022-12-20T05:21:02;3.70;99.90
34877;DHT22;21086;44.780;17.194;2022-12-20T05:23:48;3.60;99.90
34877;DHT22;21086;44.780;17.194;2022-12-20T05:26:35;3.70;99.90
34877;DHT22;21086;44.780;17.194;2022-12-20T05:29:04;3.90;99.90
34877;DHT22;21086;44.780;17.194;2022-12-20T05:31:32;4.20;99.90
34877;DHT22;21086;44.780;17.194;2022-12-20T05:33:59;4.20;99.90
34877;DHT22;21086;44.780;17.194;2022-12-20T05:36:26;3.50;99.90
34877;DHT22;21086;44.780;17.194;2022-12-20T05:38:53;4.00;99.90
34877;DHT22;21086;44.780;17.194;2022-12-20T05:41:29;5.20;99.90
34877;DHT22;21086;44.780;17.194;2022-12-20T05:43:56;3.40;99.90
34877;DHT22;21086;44.780;17.194;2022-12-20T05:46:24;4.70;99.90
34877;DHT22;21086;44.780;17.194;2022-12-20T05:48:51;3.50;99.90
34877;DHT22;21086;44.780;17.194;2022-12-20T05:51:19;3.50;99.90
34877;DHT22;21086;44.780;17.194;2022-12-20T05:53:45;4.40;99.90
34877;DHT22;21086;44.780;17.194;2022-12-20T05:56:12;3.70;99.90
34877;DHT22;21086;44.780;17.194;2022-12-20T05:58:39;3.50;99.90
34877;DHT22;21086;44.780;17.194;2022-12-20T06:01:08;3.90;99.90
34877;DHT22;21086;44.780;17.194;2022-12-20T06:03:37;3.80;99.90
34877;DHT22;21086;44.780;17.194;2022-12-20T06:06:05;3.90;99.90
34877;DHT22;21086;44.780;17.194;2022-12-20T06:08:40;3.80;99.90
34877;DHT22;21086;44.780;17.194;2022-12-20T06:11:07;3.80;99.90
34877;DHT22;21086;44.780;17.194;2022-12-20T06:13:34;3.80;99.90
34877;DHT22;21086;44.780;17.194;2022-12-20T06:16:01;3.90;99.90
34877;DHT22;21086;44.780;17.194;2022-12-20T06:18:28;3.60;99.90
34877;DHT22;21086;44.780;17.194;2022-12-20T06:20:55;3.90;99.90
34877;DHT22;21086;44.780;17.194;2022-12-20T06:23:22;4.00;99.90
34877;DHT22;21086;44.780;17.194;2022-12-20T06:25:49;4.70;99.90
34877;DHT22;21086;44.780;17.194;2022-12-20T06:28:16;3.80;99.90
34877;DHT22;21086;44.780;17.194;2022-12-20T06:30:52;4.20;99.90
34877;DHT22;21086;44.780;17.194;2022-12-20T06:33:19;3.80;99.90
34877;DHT22;21086;44.780;17.194;2022-12-20T06:35:49;4.80;99.90
34877;DHT22;21086;44.780;17.194;2022-12-20T06:38:16;3.90;99.90
34877;DHT22;21086;44.780;17.194;2022-12-20T06:40:43;4.50;99.90
34877;DHT22;21086;44.780;17.194;2022-12-20T06:43:10;4.20;99.90
34877;DHT22;21086;44.780;17.194;2022-12-20T06:45:37;5.30;99.90
34877;DHT22;21086;44.780;17.194;2022-12-20T06:48:08;4.20;99.90
34877;DHT22;21086;44.780;17.194;2022-12-20T06:50:35;4.40;99.90
34877;DHT22;21086;44.780;17.194;2022-12-20T06:53:02;4.20;99.90
34877;DHT22;21086;44.780;17.194;2022-12-20T06:55:29;4.20;99.90
34877;DHT22;21086;44.780;17.194;2022-12-20T06:57:56;4.20;99.90
34877;DHT22;21086;44.780;17.194;2022-12-20T07:00:23;5.00;99.90
34877;DHT22;21086;44.780;17.194;2022-12-20T07:02:50;4.10;99.90
34877;DHT22;21086;44.780;17.194;2022-12-20T07:05:18;4.30;99.90
34877;DHT22;21086;44.780;17.194;2022-12-20T07:07:45;4.10;99.90
34877;DHT22;21086;44.780;17.194;2022-12-20T07:10:12;4.00;99.90
34877;DHT22;21086;44.780;17.194;2022-12-20T07:12:39;4.00;99.90
34877;DHT22;21086;44.780;17.194;2022-12-20T07:15:13;4.10;99.90
34877;DHT22;21086;44.780;17.194;2022-12-20T07:17:40;4.00;99.90
34877;DHT22;21086;44.780;17.194;2022-12-20T07:20:07;4.70;99.90
34877;DHT22;21086;44.780;17.194;2022-12-20T07:22:39;4.00;99.90
34877;DHT22;21086;44.780;17.194;2022-12-20T07:25:06;4.90;99.90
34877;DHT22;21086;44.780;17.194;2022-12-20T07:27:34;4.10;99.90
34877;DHT22;21086;44.780;17.194;2022-12-20T07:30:01;4.30;99.90
34877;DHT22;21086;44.780;17.194;2022-12-20T07:32:28;4.20;99.90
34877;DHT22;21086;44.780;17.194;2022-12-20T07:34:55;4.60;99.90
34877;DHT22;21086;44.780;17.194;2022-12-20T07:37:22;4.50;99.90
34877;DHT22;21086;44.780;17.194;2022-12-20T07:39:49;4.40;99.90
34877;DHT22;21086;44.780;17.194;2022-12-20T07:42:16;4.20;99.90
34877;DHT22;21086;44.780;17.194;2022-12-20T07:44:43;4.30;99.90
34877;DHT22;21086;44.780;17.194;2022-12-20T07:47:10;4.20;99.90
34877;DHT22;21086;44.780;17.194;2022-12-20T07:49:37;5.80;99.90
34877;DHT22;21086;44.780;17.194;2022-12-20T07:52:04;4.40;99.90
34877;DHT22;21086;44.780;17.194;2022-12-20T07:54:36;4.20;99.90
34877;DHT22;21086;44.780;17.194;2022-12-20T07:57:13;3.90;99.90
34877;DHT22;21086;44.780;17.194;2022-12-20T07:59:46;3.90;99.90
34877;DHT22;21086;44.780;17.194;2022-12-20T08:02:23;5.70;99.90
34877;DHT22;21086;44.780;17.194;2022-12-20T08:04:53;3.90;99.90
34877;DHT22;21086;44.780;17.194;2022-12-20T08:07:21;4.20;99.90
34877;DHT22;21086;44.780;17.194;2022-12-20T08:09:49;4.50;99.90
34877;DHT22;21086;44.780;17.194;2022-12-20T08:12:18;5.60;99.90
34877;DHT22;21086;44.780;17.194;2022-12-20T08:14:47;4.20;99.90
34877;DHT22;21086;44.780;17.194;2022-12-20T08:17:17;4.20;99.90
34877;DHT22;21086;44.780;17.194;2022-12-20T08:19:44;4.20;99.90
34877;DHT22;21086;44.780;17.194;2022-12-20T08:22:11;4.30;99.90
34877;DHT22;21086;44.780;17.194;2022-12-20T08:24:38;4.50;99.90
34877;DHT22;21086;44.780;17.194;2022-12-20T08:27:06;6.20;99.90
34877;DHT22;21086;44.780;17.194;2022-12-20T08:29:33;4.30;99.90
34877;DHT22;21086;44.780;17.194;2022-12-20T08:32:00;4.10;99.90
34877;DHT22;21086;44.780;17.194;2022-12-20T08:34:27;4.70;99.90
34877;DHT22;21086;44.780;17.194;2022-12-20T08:36:53;4.90;99.90
34877;DHT22;21086;44.780;17.194;2022-12-20T08:39:20;4.50;99.90
34877;DHT22;21086;44.780;17.194;2022-12-20T08:41:47;4.60;99.90
34877;DHT22;21086;44.780;17.194;2022-12-20T08:44:14;4.60;99.90
34877;DHT22;21086;44.780;17.194;2022-12-20T08:46:40;5.40;99.90
34877;DHT22;21086;44.780;17.194;2022-12-20T08:49:08;4.80;99.90
34877;DHT22;21086;44.780;17.194;2022-12-20T08:51:34;4.90;99.90
34877;DHT22;21086;44.780;17.194;2022-12-20T08:54:02;4.90;99.90
34877;DHT22;21086;44.780;17.194;2022-12-20T08:56:29;5.10;99.90
34877;DHT22;21086;44.780;17.194;2022-12-20T08:58:56;6.10;99.90
34877;DHT22;21086;44.780;17.194;2022-12-20T09:01:23;5.10;99.90
34877;DHT22;21086;44.780;17.194;2022-12-20T09:03:52;6.50;99.90
34877;DHT22;21086;44.780;17.194;2022-12-20T09:06:21;5.50;99.90
34877;DHT22;21086;44.780;17.194;2022-12-20T09:08:48;5.40;99.90
34877;DHT22;21086;44.780;17.194;2022-12-20T09:11:22;5.20;99.90
34877;DHT22;21086;44.780;17.194;2022-12-20T09:13:52;5.30;99.90
34877;DHT22;21086;44.780;17.194;2022-12-20T09:16:22;5.30;99.90
34877;DHT22;21086;44.780;17.194;2022-12-20T09:18:50;5.40;99.90
34877;DHT22;21086;44.780;17.194;2022-12-20T09:21:18;5.20;99.90
34877;DHT22;21086;44.780;17.194;2022-12-20T09:23:46;5.10;99.90
34877;DHT22;21086;44.780;17.194;2022-12-20T09:26:15;5.20;99.90
34877;DHT22;21086;44.780;17.194;2022-12-20T09:28:42;5.30;99.90
34877;DHT22;21086;44.780;17.194;2022-12-20T09:31:12;5.30;99.90
34877;DHT22;21086;44.780;17.194;2022-12-20T09:33:39;5.30;99.90
34877;DHT22;21086;44.780;17.194;2022-12-20T09:36:11;5.40;99.90
34877;DHT22;21086;44.780;17.194;2022-12-20T09:38:39;5.60;99.90
34877;DHT22;21086;44.780;17.194;2022-12-20T09:41:07;5.60;99.90
34877;DHT22;21086;44.780;17.194;2022-12-20T09:43:48;5.50;99.90
34877;DHT22;21086;44.780;17.194;2022-12-20T09:46:15;5.60;99.90
34877;DHT22;21086;44.780;17.194;2022-12-20T09:48:44;5.60;99.90
34877;DHT22;21086;44.780;17.194;2022-12-20T09:55:00;5.60;99.90
34877;DHT22;21086;44.780;17.194;2022-12-20T09:57:51;5.50;99.90
34877;DHT22;21086;44.780;17.194;2022-12-20T10:00:21;5.50;99.90
34877;DHT22;21086;44.780;17.194;2022-12-20T10:02:48;5.40;99.90
34877;DHT22;21086;44.780;17.194;2022-12-20T10:05:44;5.60;99.90
34877;DHT22;21086;44.780;17.194;2022-12-20T10:13:52;5.90;99.90
34877;DHT22;21086;44.780;17.194;2022-12-20T10:24:25;5.80;99.90
34877;DHT22;21086;44.780;17.194;2022-12-20T10:26:53;5.90;99.90
34877;DHT22;21086;44.780;17.194;2022-12-20T10:29:20;5.90;99.90
34877;DHT22;21086;44.780;17.194;2022-12-20T10:31:58;6.10;99.90
34877;DHT22;21086;44.780;17.194;2022-12-20T10:34:26;6.20;99.90
34877;DHT22;21086;44.780;17.194;2022-12-20T10:37:12;6.20;99.90
34877;DHT22;21086;44.780;17.194;2022-12-20T10:39:43;6.30;99.90
34877;DHT22;21086;44.780;17.194;2022-12-20T10:42:26;6.40;99.90
34877;DHT22;21086;44.780;17.194;2022-12-20T10:44:55;6.30;99.90
34877;DHT22;21086;44.780;17.194;2022-12-20T10:47:44;6.40;99.90
34877;DHT22;21086;44.780;17.194;2022-12-20T10:50:18;6.40;99.90
34877;DHT22;21086;44.780;17.194;2022-12-20T10:53:03;6.50;99.90
34877;DHT22;21086;44.780;17.194;2022-12-20T10:55:41;6.70;99.90
34877;DHT22;21086;44.780;17.194;2022-12-20T10:58:17;7.00;99.90
34877;DHT22;21086;44.780;17.194;2022-12-20T11:00:47;7.10;99.90
34877;DHT22;21086;44.780;17.194;2022-12-20T11:03:20;7.20;99.90
34877;DHT22;21086;44.780;17.194;2022-12-20T11:05:59;7.30;99.90
34877;DHT22;21086;44.780;17.194;2022-12-20T11:08:29;7.40;99.90
34877;DHT22;21086;44.780;17.194;2022-12-20T11:13:39;7.30;99.90
34877;DHT22;21086;44.780;17.194;2022-12-20T11:19:23;7.50;99.90
34877;DHT22;21086;44.780;17.194;2022-12-20T11:25:09;7.90;99.90
34877;DHT22;21086;44.780;17.194;2022-12-20T11:30:22;8.20;99.90
34877;DHT22;21086;44.780;17.194;2022-12-20T11:35:57;8.00;99.90
34877;DHT22;21086;44.780;17.194;2022-12-20T11:38:51;8.10;99.90
34877;DHT22;21086;44.780;17.194;2022-12-20T11:49:59;8.00;99.90
34877;DHT22;21086;44.780;17.194;2022-12-20T11:52:35;7.70;99.90
34877;DHT22;21086;44.780;17.194;2022-12-20T11:55:25;7.70;99.90
34877;DHT22;21086;44.780;17.194;2022-12-20T11:58:23;7.70;99.90
34877;DHT22;21086;44.780;17.194;2022-12-20T12:01:09;7.60;99.90
34877;DHT22;21086;44.780;17.194;2022-12-20T12:03:42;7.40;99.90
34877;DHT22;21086;44.780;17.194;2022-12-20T12:06:24;7.00;99.90
34877;DHT22;21086;44.780;17.194;2022-12-20T12:11:28;7.00;99.90
34877;DHT22;21086;44.780;17.194;2022-12-20T12:14:27;7.10;99.90
34877;DHT22;21086;44.780;17.194;2022-12-20T12:16:59;7.00;99.90
34877;DHT22;21086;44.780;17.194;2022-12-20T12:19:29;7.30;99.90
34877;DHT22;21086;44.780;17.194;2022-12-20T12:22:03;7.10;99.90
34877;DHT22;21086;44.780;17.194;2022-12-20T12:24:37;7.10;99.90
34877;DHT22;21086;44.780;17.194;2022-12-20T12:27:22;7.40;99.90
34877;DHT22;21086;44.780;17.194;2022-12-20T12:29:52;7.40;99.90
34877;DHT22;21086;44.780;17.194;2022-12-20T12:32:28;7.60;99.90
34877;DHT22;21086;44.780;17.194;2022-12-20T12:43:45;7.00;99.90
34877;DHT22;21086;44.780;17.194;2022-12-20T12:46:15;7.00;99.90
34877;DHT22;21086;44.780;17.194;2022-12-20T12:48:56;7.00;99.90
34877;DHT22;21086;44.780;17.194;2022-12-20T12:51:33;7.00;99.90
34877;DHT22;21086;44.780;17.194;2022-12-20T12:57:09;7.10;99.90
34877;DHT22;21086;44.780;17.194;2022-12-20T13:20:29;6.90;99.90
34877;DHT22;21086;44.780;17.194;2022-12-20T13:25:47;7.00;99.90
34877;DHT22;21086;44.780;17.194;2022-12-20T13:30:46;7.10;99.90
34877;DHT22;21086;44.780;17.194;2022-12-20T13:47:01;7.60;99.90
34877;DHT22;21086;44.780;17.194;2022-12-20T13:49:35;7.40;99.90
34877;DHT22;21086;44.780;17.194;2022-12-20T13:54:43;7.10;99.90
34877;DHT22;21086;44.780;17.194;2022-12-20T13:57:15;7.00;99.90
34877;DHT22;21086;44.780;17.194;2022-12-20T13:59:52;6.90;99.90
34877;DHT22;21086;44.780;17.194;2022-12-20T14:02:33;6.90;99.90
34877;DHT22;21086;44.780;17.194;2022-12-20T14:05:12;6.80;99.90
34877;DHT22;21086;44.780;17.194;2022-12-20T14:07:41;6.80;99.90
34877;DHT22;21086;44.780;17.194;2022-12-20T14:10:17;6.60;99.90
34877;DHT22;21086;44.780;17.194;2022-12-20T14:12:46;6.50;99.90
34877;DHT22;21086;44.780;17.194;2022-12-20T14:17:48;6.40;99.90
34877;DHT22;21086;44.780;17.194;2022-12-20T14:20:18;6.30;99.90
34877;DHT22;21086;44.780;17.194;2022-12-20T14:27:58;5.70;99.90
34877;DHT22;21086;44.780;17.194;2022-12-20T14:32:55;5.80;99.90
34877;DHT22;21086;44.780;17.194;2022-12-20T14:35:23;5.70;99.90
34877;DHT22;21086;44.780;17.194;2022-12-20T14:37:58;5.50;99.90
34877;DHT22;21086;44.780;17.194;2022-12-20T14:40:26;5.40;99.90
34877;DHT22;21086;44.780;17.194;2022-12-20T14:42:54;5.30;99.90
34877;DHT22;21086;44.780;17.194;2022-12-20T14:45:24;5.20;99.90
34877;DHT22;21086;44.780;17.194;2022-12-20T14:52:54;5.30;99.90
34877;DHT22;21086;44.780;17.194;2022-12-20T14:55:24;5.20;99.90
34877;DHT22;21086;44.780;17.194;2022-12-20T14:57:54;5.10;99.90
34877;DHT22;21086;44.780;17.194;2022-12-20T15:00:22;5.00;99.90
34877;DHT22;21086;44.780;17.194;2022-12-20T15:08:31;4.90;99.90
34877;DHT22;21086;44.780;17.194;2022-12-20T15:13:46;5.00;99.90
34877;DHT22;21086;44.780;17.194;2022-12-20T15:16:18;5.00;99.90
34877;DHT22;21086;44.780;17.194;2022-12-20T15:18:46;4.90;99.90
34877;DHT22;21086;44.780;17.194;2022-12-20T15:21:35;4.70;99.90
34877;DHT22;21086;44.780;17.194;2022-12-20T15:24:14;4.70;99.90
34877;DHT22;21086;44.780;17.194;2022-12-20T15:26:42;4.50;99.90
34877;DHT22;21086;44.780;17.194;2022-12-20T15:29:29;4.60;99.90
34877;DHT22;21086;44.780;17.194;2022-12-20T15:32:06;4.60;99.90
34877;DHT22;21086;44.780;17.194;2022-12-20T15:34:36;4.60;99.90
34877;DHT22;21086;44.780;17.194;2022-12-20T15:37:04;4.50;99.90
34877;DHT22;21086;44.780;17.194;2022-12-20T15:39:32;4.50;99.90
34877;DHT22;21086;44.780;17.194;2022-12-20T15:42:02;4.60;99.90
34877;DHT22;21086;44.780;17.194;2022-12-20T15:44:30;4.60;99.90
34877;DHT22;21086;44.780;17.194;2022-12-20T15:46:58;4.60;99.90
34877;DHT22;21086;44.780;17.194;2022-12-20T15:49:28;4.50;99.90
34877;DHT22;21086;44.780;17.194;2022-12-20T15:51:56;4.40;99.90
34877;DHT22;21086;44.780;17.194;2022-12-20T15:54:26;4.40;99.90
34877;DHT22;21086;44.780;17.194;2022-12-20T15:56:58;4.30;99.90
34877;DHT22;21086;44.780;17.194;2022-12-20T15:59:26;4.20;99.90
34877;DHT22;21086;44.780;17.194;2022-12-20T16:02:24;4.20;99.90
34877;DHT22;21086;44.780;17.194;2022-12-20T16:04:53;4.20;99.90
34877;DHT22;21086;44.780;17.194;2022-12-20T16:07:21;4.30;99.90
34877;DHT22;21086;44.780;17.194;2022-12-20T16:09:49;4.30;99.90
34877;DHT22;21086;44.780;17.194;2022-12-20T16:12:21;4.20;99.90
34877;DHT22;21086;44.780;17.194;2022-12-20T16:14:49;4.30;99.90
34877;DHT22;21086;44.780;17.194;2022-12-20T16:17:17;4.20;99.90
34877;DHT22;21086;44.780;17.194;2022-12-20T16:19:45;4.20;99.90
34877;DHT22;21086;44.780;17.194;2022-12-20T16:22:17;4.30;99.90
34877;DHT22;21086;44.780;17.194;2022-12-20T16:24:44;4.30;99.90
34877;DHT22;21086;44.780;17.194;2022-12-20T16:27:11;4.40;99.90
34877;DHT22;21086;44.780;17.194;2022-12-20T16:29:39;4.30;99.90
34877;DHT22;21086;44.780;17.194;2022-12-20T16:32:15;4.30;99.90
34877;DHT22;21086;44.780;17.194;2022-12-20T16:34:43;4.20;99.90
34877;DHT22;21086;44.780;17.194;2022-12-20T16:37:11;4.30;99.90
34877;DHT22;21086;44.780;17.194;2022-12-20T16:39:38;4.30;99.90
34877;DHT22;21086;44.780;17.194;2022-12-20T16:42:16;4.20;99.90
34877;DHT22;21086;44.780;17.194;2022-12-20T16:44:43;4.20;99.90
34877;DHT22;21086;44.780;17.194;2022-12-20T16:47:12;4.20;99.90
34877;DHT22;21086;44.780;17.194;2022-12-20T16:49:41;4.20;99.90
34877;DHT22;21086;44.780;17.194;2022-12-20T16:52:19;4.30;99.90
34877;DHT22;21086;44.780;17.194;2022-12-20T16:54:49;4.40;99.90
34877;DHT22;21086;44.780;17.194;2022-12-20T16:57:16;4.50;99.90
34877;DHT22;21086;44.780;17.194;2022-12-20T16:59:43;4.60;99.90
34877;DHT22;21086;44.780;17.194;2022-12-20T17:02:31;4.70;99.90
34877;DHT22;21086;44.780;17.194;2022-12-20T17:04:59;4.70;99.90
34877;DHT22;21086;44.780;17.194;2022-12-20T17:07:26;4.80;99.90
34877;DHT22;21086;44.780;17.194;2022-12-20T17:09:53;4.80;99.90
34877;DHT22;21086;44.780;17.194;2022-12-20T17:12:39;4.80;99.90
34877;DHT22;21086;44.780;17.194;2022-12-20T17:15:18;4.70;99.90
34877;DHT22;21086;44.780;17.194;2022-12-20T17:17:47;4.70;99.90
34877;DHT22;21086;44.780;17.194;2022-12-20T17:20:15;4.80;99.90
34877;DHT22;21086;44.780;17.194;2022-12-20T17:22:43;4.70;99.90
34877;DHT22;21086;44.780;17.194;2022-12-20T17:25:33;4.60;99.90
34877;DHT22;21086;44.780;17.194;2022-12-20T17:28:00;4.50;99.90
34877;DHT22;21086;44.780;17.194;2022-12-20T17:30:27;4.40;99.90
34877;DHT22;21086;44.780;17.194;2022-12-20T17:32:54;4.60;99.90
34877;DHT22;21086;44.780;17.194;2022-12-20T17:35:25;4.70;99.90
34877;DHT22;21086;44.780;17.194;2022-12-20T17:37:53;4.70;99.90
34877;DHT22;21086;44.780;17.194;2022-12-20T17:40:23;4.60;99.90
34877;DHT22;21086;44.780;17.194;2022-12-20T17:42:51;4.60;99.90
34877;DHT22;21086;44.780;17.194;2022-12-20T17:45:32;4.60;99.90
34877;DHT22;21086;44.780;17.194;2022-12-20T17:48:03;4.70;99.90
34877;DHT22;21086;44.780;17.194;2022-12-20T17:50:30;4.70;99.90
34877;DHT22;21086;44.780;17.194;2022-12-20T17:52:57;4.60;99.90
34877;DHT22;21086;44.780;17.194;2022-12-20T17:55:26;4.50;99.90
34877;DHT22;21086;44.780;17.194;2022-12-20T17:57:54;4.50;99.90
34877;DHT22;21086;44.780;17.194;2022-12-20T18:00:28;4.50;99.90
34877;DHT22;21086;44.780;17.194;2022-12-20T18:03:05;4.40;99.90
34877;DHT22;21086;44.780;17.194;2022-12-20T18:05:33;4.50;99.90
34877;DHT22;21086;44.780;17.194;2022-12-20T18:08:00;4.40;99.90
34877;DHT22;21086;44.780;17.194;2022-12-20T18:10:27;4.40;99.90
34877;DHT22;21086;44.780;17.194;2022-12-20T18:12:54;4.70;99.90
34877;DHT22;21086;44.780;17.194;2022-12-20T18:15:21;4.60;99.90